Airport Weather Around the Area


KLVN - Mpls/Airlake, Lakeville, MN, USA
Distance from station: S 5mi, 8km
Updated: Tue, 23-May-2017 1:29pm CDT
Mostly Cloudy
Mostly Cloudy
 Wind from NE
Wind: NE 9 mph , 15 km/h
Temperature: 55°F , 13°C
Dew Point: 46°F , 8°C
Humidity: 72%
Barometer: 29.80 inHg , 1009.1 hPa
Clouds: Mostly Cloudy
Visibility: 10 miles , 16 km
Cloud details: Partly Cloudy 3500 ft
Mostly Cloudy 6000 ft
2017/05/23 18:29 KLVN 231829Z AUTO 05008KT 10SM SCT035 BKN060 13/08 A2980 RMK AO2
KMSP - MSP International, Minneapolis, MN, USA
Distance from station: N 13mi, 20km
Updated: Tue, 23-May-2017 12:53pm CDT
Overcast
Overcast
 Wind from NNE
Wind: NNE 10 mph , 17 km/h
Temperature: 59°F , 15°C
Dew Point: 43°F , 6°C
Humidity: 55%
Barometer: 29.81 inHg , 1009.5 hPa
Clouds: Overcast
Visibility: 10 miles , 16 km
Cloud details: Few Clouds 3400 ft
Few Clouds 4100 ft
Mostly Cloudy 6000 ft
Overcast 25000 ft
2017/05/23 17:53 KMSP 231753Z 02009KT 10SM FEW034 FEW041 BKN060 OVC250 15/06 A2981 RMK AO2 SLP095 T01500056 10161 20106 58006
 
KSGS - South St Paul/Fleming Field, So. St. Paul, MN, USA
Distance from station: NE 14mi, 22km
Updated: Tue, 23-May-2017 1:34pm CDT
Mostly Cloudy
Mostly Cloudy
 Wind from NE
Wind: NE 9 mph , 15 km/h
Temperature: 59°F , 15°C
Dew Point: 46°F , 8°C
Humidity: 63%
Barometer: 29.80 inHg , 1009.1 hPa
Clouds: Mostly Cloudy
Visibility: 10 miles , 16 km
Cloud details: Mostly Cloudy 3200 ft
Mostly Cloudy 3900 ft
Mostly Cloudy 5000 ft
2017/05/23 18:34 KSGS 231834Z AUTO 04008KT 10SM BKN032 BKN039 BKN050 15/08 A2980 RMK AO2 T01480075
KFCM - Mpls/Flying Cloud, Eden Prairie, MN, USA
Distance from station: NW 15mi, 24km
Updated: Tue, 23-May-2017 12:53pm CDT
Overcast
Overcast
 Wind from NNW
Wind: NNW 12 mph , 19 km/h
Temperature: 57°F , 14°C
Dew Point: 50°F , 10°C
Humidity: 77%
Barometer: 29.80 inHg , 1009.1 hPa
Clouds: Overcast
Visibility: 10 miles , 16 km
Cloud details: Overcast 6000 ft
2017/05/23 17:53 KFCM 231753Z 34010KT 10SM OVC060 14/10 A2980 RMK AO2 SLP093 60001 T01440100 10144 20100 58007
 
KSTP - St. Paul Downtown, St. Paul, MN, USA
Distance from station: NNE 18mi, 29km
Updated: Tue, 23-May-2017 1:20pm CDT
Overcast
Overcast
 Wind from NE
Wind: NE 9 mph , 15 km/h, Gust: 20 mph , 31 km/h
Temperature: 59°F , 15°C
Dew Point: 45°F , 7°C
Humidity: 59%
Barometer: 29.81 inHg , 1009.5 hPa
Clouds: Overcast
Visibility: 10 miles , 16 km
Cloud details: Few Clouds 3700 ft
Mostly Cloudy 4600 ft
Overcast 6000 ft
2017/05/23 18:20 KSTP 231820Z 05008G17KT 10SM FEW037 BKN046 OVC060 15/07 A2981 RMK AO2 T01500072
KSYN - Stanton, Minnesota, USA
Distance from station: SE 18mi, 29km
Updated: Tue, 23-May-2017 1:34pm CDT
Light rain, Overcast
Light rain, Overcast
 Wind from E
Wind: E 9 mph , 15 km/h
Temperature: 54°F , 12°C
Dew Point: 50°F , 10°C
Humidity: 88%
Barometer: 29.80 inHg , 1009.1 hPa
Summary: Light Rain
Clouds: Overcast
Visibility: 7 miles , 11 km
Cloud details: Partly Cloudy 3800 ft
Partly Cloudy 4400 ft
Overcast 5000 ft
2017/05/23 18:34 KSYN 231834Z AUTO 08008KT 7SM -RA SCT038 SCT044 OVC050 12/10 A2980 RMK AO2 P0001 T01200096
 
KMIC - Mlps/Crystal, MN, USA
Distance from station: NNW 26mi, 42km
Updated: Tue, 23-May-2017 12:53pm CDT
Overcast
Overcast
 Wind from NNW
Wind: NNW 12 mph , 19 km/h
Temperature: 55°F , 13°C
Dew Point: 43°F , 6°C
Humidity: 63%
Barometer: 29.80 inHg , 1009.1 hPa
Clouds: Overcast
Visibility: 10 miles , 16 km
Cloud details: Mostly Cloudy 3700 ft
Overcast 5500 ft
2017/05/23 17:53 KMIC 231753Z 34010KT 10SM BKN037 OVC055 13/06 A2980 RMK AO2 SLP094 T01330061 10139 20089 58006
KFBL - Faribault Municipal, MN, USA
Distance from station: S 27mi, 43km
Updated: Tue, 23-May-2017 1:34pm CDT
Light drizzle, Overcast
Light drizzle, Overcast
 Wind from NNW
Wind: NNW 6 mph , 9 km/h
Temperature: 54°F , 12°C
Dew Point: 48°F , 9°C
Humidity: 82%
Barometer: 29.80 inHg , 1009.1 hPa
Summary: Light Drizzle
Clouds: Overcast
Visibility: 10 miles , 16 km
Cloud details: Partly Cloudy 1500 ft
Mostly Cloudy 3400 ft
Overcast 4900 ft
2017/05/23 18:34 KFBL 231834Z AUTO 33005KT 10SM -DZ SCT015 BKN034 OVC049 12/09 A2980 RMK AO2
 
K21D - Lake Elmo, MN, USA
Distance from station: NE 27mi, 44km
Updated: Tue, 23-May-2017 1:31pm CDT
Mostly Cloudy
Mostly Cloudy
 Wind from NE
Wind: NE 10 mph , 17 km/h
Temperature: 57°F , 14°C
Dew Point: 46°F , 8°C
Humidity: 67%
Barometer: 29.82 inHg , 1009.8 hPa
Clouds: Mostly Cloudy
Visibility: 10 miles , 16 km
Cloud details: Partly Cloudy 3000 ft
Partly Cloudy 3600 ft
Mostly Cloudy 5500 ft
2017/05/23 18:31 K21D 231831Z AUTO 05009KT 10SM SCT030 SCT036 BKN055 14/08 A2982 RMK AO2
KANE - Anoka Co./Blaine, MN, USA
Distance from station: 0 30mi, 48km
Updated: Tue, 23-May-2017 1:46pm CDT
Overcast
Overcast
 Wind from N
Wind: N 8 mph , 13 km/h
Temperature: 61°F , 16°C
Dew Point: 45°F , 7°C
Humidity: 55%
Barometer: 29.80 inHg , 1009.1 hPa
Clouds: Overcast
Visibility: 10 miles , 16 km
Cloud details: Partly Cloudy 4600 ft
Overcast 6000 ft
2017/05/23 18:46 KANE 231846Z 01007KT 10SM SCT046 OVC060 16/07 A2980
 
KRGK - Red Wing, MN, USA
Distance from station: ESE 37mi, 60km
Updated: Tue, 23-May-2017 1:35pm CDT
Light rain, Overcast
Light rain, Overcast
 Wind from NE
Wind: NE 10 mph , 17 km/h
Temperature: 55°F , 13°C
Dew Point: 46°F , 8°C
Humidity: 72%
Barometer: 29.79 inHg , 1008.8 hPa
Summary: Light Rain
Clouds: Overcast
Visibility: 10 miles , 16 km
Cloud details: Partly Cloudy 2400 ft
Overcast 4900 ft
2017/05/23 18:35 KRGK 231835Z AUTO 04009KT 10SM -RA SCT024 OVC049 13/08 A2979 RMK AO2